createdAt,value
2023-01-27T00:01:01.581Z,-0.29
2023-01-27T00:03:30.950Z,-0.30
2023-01-27T00:06:01.304Z,-0.29
2023-01-27T00:08:30.481Z,-0.28
2023-01-27T00:11:13.962Z,-0.30
2023-01-27T00:13:44.411Z,-0.25
2023-01-27T00:16:13.617Z,-0.23
2023-01-27T00:18:42.901Z,-0.17
2023-01-27T00:21:31.243Z,-0.14
2023-01-27T00:24:17.995Z,-0.10
2023-01-27T00:26:47.282Z,-0.07
2023-01-27T00:29:17.711Z,-0.02
2023-01-27T00:32:04.278Z,0.01
2023-01-27T00:34:33.366Z,-0.05
2023-01-27T00:37:02.568Z,-0.17
2023-01-27T00:39:32.185Z,-0.17
2023-01-27T00:42:01.354Z,-0.14
2023-01-27T00:44:32.062Z,-0.09
2023-01-27T00:47:01.784Z,-0.09
2023-01-27T00:49:30.827Z,-0.10
2023-01-27T00:51:59.998Z,-0.11
2023-01-27T00:54:29.037Z,-0.10
2023-01-27T00:56:58.098Z,-0.13
2023-01-27T00:59:27.207Z,-0.17
2023-01-27T01:01:57.747Z,-0.24
2023-01-27T01:04:26.815Z,-0.25
2023-01-27T01:06:55.968Z,-0.24
2023-01-27T01:09:25.393Z,-0.24
2023-01-27T01:11:54.475Z,-0.24
2023-01-27T01:14:23.526Z,-0.25
2023-01-27T01:16:52.824Z,-0.25
2023-01-27T01:19:24.335Z,-0.24
2023-01-27T01:21:53.451Z,-0.27
2023-01-27T01:24:22.578Z,-0.31
2023-01-27T01:26:51.781Z,-0.35
2023-01-27T01:29:20.968Z,-0.29
2023-01-27T01:31:52.408Z,-0.32
2023-01-27T01:34:25.220Z,-0.42
2023-01-27T01:36:54.410Z,-0.35
2023-01-27T01:39:23.503Z,-0.39
2023-01-27T01:41:52.878Z,-0.38
2023-01-27T01:44:28.173Z,-0.38
2023-01-27T01:46:57.698Z,-0.40
2023-01-27T01:49:33.816Z,-0.39
2023-01-27T01:52:08.446Z,-0.38
2023-01-27T01:54:42.035Z,-0.40
2023-01-27T01:57:17.194Z,-0.41
2023-01-27T01:59:55.330Z,-0.43
2023-01-27T02:02:26.682Z,-0.46
2023-01-27T02:05:02.419Z,-0.49
2023-01-27T02:07:40.841Z,-0.43
2023-01-27T02:10:13.094Z,-0.51
2023-01-27T02:12:42.425Z,-0.50
2023-01-27T02:15:14.184Z,-0.59
2023-01-27T02:17:43.837Z,-0.58
2023-01-27T02:20:26.786Z,-0.57
2023-01-27T02:23:05.861Z,-0.54
2023-01-27T02:25:50.185Z,-0.51
2023-01-27T02:28:19.404Z,-0.51
2023-01-27T02:30:49.625Z,-0.53
2023-01-27T02:33:18.739Z,-0.53
2023-01-27T02:35:59.252Z,-0.46
2023-01-27T02:38:32.113Z,-0.51
2023-01-27T02:41:10.929Z,-0.56
2023-01-27T02:43:41.118Z,-0.59
2023-01-27T02:46:10.379Z,-0.54
2023-01-27T02:48:39.468Z,-0.60
2023-01-27T02:51:08.564Z,-0.56
2023-01-27T02:53:41.176Z,-0.54
2023-01-27T02:56:12.285Z,-0.54
2023-01-27T02:58:41.480Z,-0.50
2023-01-27T03:01:15.607Z,-0.47
2023-01-27T03:03:47.313Z,-0.47
2023-01-27T03:06:21.687Z,-0.51
2023-01-27T03:08:50.895Z,-0.43
2023-01-27T03:11:35.212Z,-0.50
2023-01-27T03:14:05.572Z,-0.59
2023-01-27T03:16:52.328Z,-0.56
2023-01-27T03:19:22.275Z,-0.57
2023-01-27T03:21:52.900Z,-0.50
2023-01-27T03:24:24.222Z,-0.55
2023-01-27T03:26:57.850Z,-0.54
2023-01-27T03:29:56.429Z,-0.53
2023-01-27T03:32:27.752Z,-0.54
2023-01-27T03:35:18.111Z,-0.56
2023-01-27T03:38:08.608Z,-0.50
2023-01-27T03:40:55.319Z,-0.42
2023-01-27T03:43:43.109Z,-0.47
2023-01-27T03:46:19.212Z,-0.54
2023-01-27T03:48:51.513Z,-0.54
2023-01-27T03:51:22.233Z,-0.48
2023-01-27T03:53:52.040Z,-0.51
2023-01-27T03:56:23.032Z,-0.49
2023-01-27T03:58:53.681Z,-0.46
2023-01-27T04:01:24.334Z,-0.49
2023-01-27T04:04:10.808Z,-0.47
2023-01-27T04:06:56.544Z,-0.46
2023-01-27T04:09:29.110Z,-0.52
2023-01-27T04:12:00.156Z,-0.52
2023-01-27T04:14:34.042Z,-0.54
2023-01-27T04:17:05.489Z,-0.54
2023-01-27T04:19:35.680Z,-0.60
2023-01-27T04:22:06.347Z,-0.64
2023-01-27T04:24:35.810Z,-0.79
2023-01-27T04:27:08.736Z,-0.77
2023-01-27T04:29:42.134Z,-0.77
2023-01-27T04:32:13.486Z,-0.73
2023-01-27T04:34:43.024Z,-0.70
2023-01-27T04:37:12.555Z,-0.70
2023-01-27T04:39:42.600Z,-0.73
2023-01-27T04:42:11.814Z,-0.69
2023-01-27T04:44:42.469Z,-0.74
2023-01-27T04:47:11.678Z,-0.73
2023-01-27T04:49:41.195Z,-0.69
2023-01-27T04:52:10.578Z,-0.74
2023-01-27T04:54:39.725Z,-0.77
2023-01-27T04:57:09.266Z,-0.74
2023-01-27T04:59:38.310Z,-0.86
2023-01-27T05:02:08.731Z,-0.82
2023-01-27T05:04:38.211Z,-0.78
2023-01-27T05:07:07.473Z,-0.80
2023-01-27T05:09:36.796Z,-0.81
2023-01-27T05:12:06.979Z,-0.88
2023-01-27T05:14:36.119Z,-0.87
2023-01-27T05:17:05.440Z,-0.90
2023-01-27T05:19:36.008Z,-1.02
2023-01-27T05:22:05.355Z,-0.92
2023-01-27T05:24:34.647Z,-0.86
2023-01-27T05:27:03.791Z,-0.85
2023-01-27T05:29:33.375Z,-0.93
2023-01-27T05:32:02.761Z,-0.90
2023-01-27T05:34:32.075Z,-0.71
2023-01-27T05:37:02.655Z,-0.75
2023-01-27T05:39:32.959Z,-0.80
2023-01-27T05:42:02.160Z,-0.81
2023-01-27T05:44:31.627Z,-0.83
2023-01-27T05:47:00.909Z,-0.82
2023-01-27T05:49:30.305Z,-0.85
2023-01-27T05:51:59.553Z,-0.86
2023-01-27T05:54:30.229Z,-0.82
2023-01-27T05:56:59.351Z,-0.85
2023-01-27T05:59:28.493Z,-0.86
2023-01-27T06:01:57.600Z,-0.86
2023-01-27T06:04:26.874Z,-0.89
2023-01-27T06:06:55.969Z,-0.88
2023-01-27T06:09:25.021Z,-0.89
2023-01-27T06:11:55.495Z,-0.97
2023-01-27T06:14:24.669Z,-0.95
2023-01-27T06:16:54.134Z,-1.00
2023-01-27T06:19:23.221Z,-0.97
2023-01-27T06:21:52.289Z,-0.93
2023-01-27T06:24:21.515Z,-0.93
2023-01-27T06:26:51.473Z,-0.87
2023-01-27T06:29:22.337Z,-0.88
2023-01-27T06:31:51.468Z,-0.91
2023-01-27T06:34:20.869Z,-0.89
2023-01-27T06:36:50.026Z,-0.94
2023-01-27T06:39:19.177Z,-0.90
2023-01-27T06:41:48.325Z,-0.89
2023-01-27T06:44:17.758Z,-0.90
2023-01-27T06:46:48.268Z,-0.90
2023-01-27T06:49:17.323Z,-0.88
2023-01-27T06:51:46.509Z,-0.90
2023-01-27T06:54:15.794Z,-0.88
2023-01-27T06:56:44.911Z,-0.91
2023-01-27T06:59:14.189Z,-0.83
2023-01-27T07:01:43.327Z,-0.80
2023-01-27T07:04:14.214Z,-0.78
2023-01-27T07:06:43.266Z,-0.60
2023-01-27T07:09:12.442Z,-0.65
2023-01-27T07:11:41.723Z,-0.67
2023-01-27T07:14:10.869Z,-0.64
2023-01-27T07:16:40.553Z,-0.63
2023-01-27T07:19:09.588Z,-0.65
2023-01-27T07:21:40.469Z,-0.62
2023-01-27T07:24:09.910Z,-0.56
2023-01-27T07:26:39.056Z,-0.47
2023-01-27T07:29:08.126Z,-0.54
2023-01-27T07:31:37.293Z,-0.44
2023-01-27T07:34:06.449Z,-0.37
2023-01-27T07:36:35.599Z,-0.31
2023-01-27T07:39:06.061Z,-0.33
2023-01-27T07:41:35.232Z,-0.22
2023-01-27T07:44:04.687Z,-0.13
2023-01-27T07:46:35.998Z,-0.11
2023-01-27T07:49:05.058Z,-0.10
2023-01-27T07:51:34.144Z,-0.16
2023-01-27T07:54:03.335Z,-0.10
2023-01-27T07:56:36.513Z,-0.04
2023-01-27T07:59:05.853Z,0.03
2023-01-27T08:01:34.905Z,-0.01
2023-01-27T08:04:04.062Z,0.01
2023-01-27T08:06:33.317Z,-0.01
2023-01-27T08:09:02.430Z,0.12
2023-01-27T08:11:31.577Z,0.09
2023-01-27T08:14:02.014Z,0.05
2023-01-27T08:16:31.550Z,0.18
2023-01-27T08:19:00.739Z,0.00
2023-01-27T08:21:32.963Z,0.11
2023-01-27T08:24:02.308Z,0.18
2023-01-27T08:26:31.557Z,0.19
2023-01-27T08:29:02.025Z,0.06
2023-01-27T08:31:31.143Z,0.04
2023-01-27T08:34:00.290Z,-0.03
2023-01-27T08:36:29.439Z,-0.03
2023-01-27T08:38:58.484Z,0.09
2023-01-27T08:41:28.672Z,0.06
2023-01-27T08:43:57.944Z,0.14
2023-01-27T08:46:28.429Z,0.28
2023-01-27T08:48:57.586Z,0.23
2023-01-27T08:51:26.788Z,0.15
2023-01-27T08:53:55.971Z,0.35
2023-01-27T08:56:27.307Z,0.26
2023-01-27T08:58:57.000Z,0.43
2023-01-27T09:01:27.967Z,0.51
2023-01-27T09:03:57.142Z,0.39
2023-01-27T09:06:26.570Z,0.43
2023-01-27T09:09:11.798Z,0.47
2023-01-27T09:11:43.860Z,0.58
2023-01-27T09:14:13.897Z,0.62
2023-01-27T09:16:44.380Z,0.43
2023-01-27T09:19:13.583Z,0.32
2023-01-27T09:21:42.735Z,0.47
2023-01-27T09:24:13.802Z,0.42
2023-01-27T09:26:42.850Z,0.37
2023-01-27T09:29:11.897Z,0.45
2023-01-27T09:31:41.138Z,0.42
2023-01-27T09:34:11.742Z,0.53
2023-01-27T09:36:46.473Z,0.52
2023-01-27T09:39:20.013Z,0.55
2023-01-27T09:42:27.810Z,0.47
2023-01-27T09:45:25.694Z,0.52
2023-01-27T09:48:21.303Z,0.50
2023-01-27T09:50:56.824Z,0.71
2023-01-27T09:54:10.814Z,0.80
2023-01-27T09:56:51.729Z,0.85
2023-01-27T09:59:48.121Z,0.82
2023-01-27T10:02:39.194Z,0.83
2023-01-27T10:05:33.119Z,1.01
2023-01-27T10:08:18.153Z,1.42
2023-01-27T10:11:04.085Z,1.49
2023-01-27T10:13:48.699Z,1.48
2023-01-27T10:16:41.578Z,1.40
2023-01-27T10:19:32.158Z,1.10
2023-01-27T10:22:12.986Z,1.54
2023-01-27T10:25:01.989Z,1.10
2023-01-27T10:27:37.649Z,1.14
2023-01-27T10:30:15.382Z,1.39
2023-01-27T10:32:51.829Z,1.66
2023-01-27T10:35:26.924Z,1.61
2023-01-27T10:38:13.737Z,1.36
2023-01-27T10:40:55.784Z,1.57
2023-01-27T10:43:35.101Z,1.57
2023-01-27T10:46:16.141Z,1.95
2023-01-27T10:48:52.469Z,2.41
2023-01-27T10:51:27.397Z,2.55
2023-01-27T10:54:02.370Z,2.32
2023-01-27T10:56:41.651Z,1.89
2023-01-27T10:59:21.546Z,1.66
2023-01-27T11:01:57.407Z,1.62
2023-01-27T11:04:37.819Z,1.90
2023-01-27T11:07:07.939Z,2.07
2023-01-27T11:09:43.699Z,1.84
2023-01-27T11:12:16.447Z,1.97
2023-01-27T11:14:50.514Z,2.14
2023-01-27T11:17:31.695Z,2.37
2023-01-27T11:20:13.182Z,2.82
2023-01-27T11:22:53.273Z,2.75
2023-01-27T11:25:30.561Z,2.53
2023-01-27T11:28:16.674Z,2.10
2023-01-27T11:30:56.832Z,2.31
2023-01-27T11:33:34.848Z,2.27
2023-01-27T11:36:04.277Z,2.35
2023-01-27T11:38:33.627Z,2.57
2023-01-27T11:41:02.995Z,2.40
2023-01-27T11:43:34.917Z,2.42
2023-01-27T11:46:08.035Z,2.52
2023-01-27T11:48:42.402Z,2.68
2023-01-27T11:51:18.544Z,2.80
2023-01-27T11:53:51.416Z,2.77
2023-01-27T11:56:21.318Z,2.47
2023-01-27T11:59:04.681Z,2.49
2023-01-27T12:01:47.256Z,2.63
2023-01-27T12:04:24.356Z,2.20
2023-01-27T12:07:00.700Z,2.37
2023-01-27T12:09:36.394Z,2.55
2023-01-27T12:12:21.799Z,2.80
2023-01-27T12:14:54.397Z,2.88
2023-01-27T12:17:33.165Z,2.97
2023-01-27T12:20:07.775Z,3.15
2023-01-27T12:22:40.944Z,3.20
2023-01-27T12:25:20.848Z,3.25
2023-01-27T12:27:54.882Z,3.19
2023-01-27T12:30:28.797Z,3.02
2023-01-27T12:33:00.146Z,3.16
2023-01-27T12:35:33.413Z,3.18
2023-01-27T12:38:08.509Z,2.97
2023-01-27T12:40:44.458Z,3.00
2023-01-27T12:43:17.188Z,3.10
2023-01-27T12:46:07.849Z,3.18
2023-01-27T12:48:50.000Z,3.40
2023-01-27T12:51:23.221Z,3.53
2023-01-27T12:54:13.206Z,3.33
2023-01-27T12:56:43.184Z,3.48
2023-01-27T12:59:18.941Z,3.45
2023-01-27T13:02:03.698Z,3.46
2023-01-27T13:04:33.544Z,3.48
2023-01-27T13:07:09.352Z,3.45
2023-01-27T13:09:46.748Z,3.36
2023-01-27T13:12:21.620Z,3.39
2023-01-27T13:14:54.339Z,3.28
2023-01-27T13:17:39.460Z,3.09
2023-01-27T13:20:21.056Z,2.94
2023-01-27T13:22:58.792Z,3.03
2023-01-27T13:25:37.728Z,3.07
2023-01-27T13:28:12.820Z,2.91
2023-01-27T13:30:47.130Z,2.78
2023-01-27T13:33:31.544Z,2.69
2023-01-27T13:36:07.783Z,2.60
2023-01-27T13:38:48.587Z,2.61
2023-01-27T13:41:26.712Z,2.62
2023-01-27T13:44:04.787Z,2.59
2023-01-27T13:46:40.631Z,2.46
2023-01-27T13:49:28.177Z,2.19
2023-01-27T13:51:57.334Z,2.14
2023-01-27T13:54:26.624Z,1.89
2023-01-27T13:57:19.842Z,1.84
2023-01-27T14:00:09.525Z,2.01
2023-01-27T14:03:03.001Z,2.05
2023-01-27T14:05:53.136Z,1.99
2023-01-27T14:08:54.395Z,1.86
2023-01-27T14:11:33.837Z,1.73
2023-01-27T14:14:30.757Z,1.74
2023-01-27T14:17:35.819Z,1.61
2023-01-27T14:20:31.564Z,1.57
2023-01-27T14:23:28.477Z,1.37
2023-01-27T14:26:15.604Z,1.23
2023-01-27T14:29:13.090Z,1.15
2023-01-27T14:31:52.816Z,1.18
2023-01-27T14:34:44.118Z,1.07
2023-01-27T14:37:25.943Z,0.91
2023-01-27T14:40:14.568Z,0.89
2023-01-27T14:42:55.610Z,0.84
2023-01-27T14:45:30.055Z,0.76
2023-01-27T14:48:09.363Z,0.51
2023-01-27T14:50:50.599Z,0.52
2023-01-27T14:53:38.266Z,0.53
2023-01-27T14:56:21.117Z,0.47
2023-01-27T14:59:03.482Z,0.49
2023-01-27T15:01:45.493Z,0.43
2023-01-27T15:04:35.767Z,0.34
2023-01-27T15:07:16.746Z,0.32
2023-01-27T15:10:20.940Z,0.29
2023-01-27T15:13:43.851Z,0.32
2023-01-27T15:16:47.159Z,0.24
2023-01-27T15:20:11.005Z,0.22
2023-01-27T15:22:58.314Z,0.21
2023-01-27T15:25:35.237Z,0.18
2023-01-27T15:28:06.047Z,0.20
2023-01-27T15:30:38.620Z,0.14
2023-01-27T15:33:47.192Z,0.10
2023-01-27T15:36:33.412Z,0.08
2023-01-27T15:39:25.968Z,-0.10
2023-01-27T15:42:12.846Z,-0.13
2023-01-27T15:45:02.252Z,-0.20
2023-01-27T15:47:36.315Z,-0.28
2023-01-27T15:50:19.568Z,-0.29
2023-01-27T15:52:50.464Z,-0.25
2023-01-27T15:55:29.067Z,-0.36
2023-01-27T15:58:09.055Z,-0.43
2023-01-27T16:00:42.479Z,-0.46
2023-01-27T16:03:29.118Z,-0.43
2023-01-27T16:06:05.973Z,-0.47
2023-01-27T16:08:43.106Z,-0.48
2023-01-27T16:11:40.241Z,-0.53
2023-01-27T16:14:44.010Z,-0.52
2023-01-27T16:17:26.625Z,-0.52
2023-01-27T16:20:25.216Z,-0.58
2023-01-27T16:23:02.016Z,-0.55
2023-01-27T16:25:40.789Z,-0.56
2023-01-27T16:28:19.739Z,-0.51
2023-01-27T16:30:58.165Z,-0.56
2023-01-27T16:33:33.536Z,-0.49
2023-01-27T16:36:10.495Z,-0.42
2023-01-27T16:38:42.286Z,-0.46
2023-01-27T16:41:21.271Z,-0.47
2023-01-27T16:43:54.403Z,-0.51
2023-01-27T16:46:34.322Z,-0.43
2023-01-27T16:49:12.021Z,-0.43
2023-01-27T16:51:43.419Z,-0.44
2023-01-27T16:54:23.625Z,-0.46
2023-01-27T16:56:53.921Z,-0.46
2023-01-27T16:59:26.782Z,-0.51
2023-01-27T17:02:00.664Z,-0.53
2023-01-27T17:04:31.809Z,-0.53
2023-01-27T17:07:13.384Z,-0.54
2023-01-27T17:09:50.327Z,-0.46
2023-01-27T17:12:31.852Z,-0.64
2023-01-27T17:15:03.261Z,-0.38
2023-01-27T17:17:36.368Z,-0.44
2023-01-27T17:20:08.935Z,-0.59
2023-01-27T17:22:43.993Z,-0.54
2023-01-27T17:25:19.051Z,-0.67
2023-01-27T17:27:48.385Z,-0.81
2023-01-27T17:30:22.781Z,-0.84
2023-01-27T17:32:54.484Z,-0.85
2023-01-27T17:35:26.625Z,-0.91
2023-01-27T17:38:14.213Z,-0.93
2023-01-27T17:40:46.965Z,-1.00
2023-01-27T17:43:29.228Z,-1.08
2023-01-27T17:46:18.968Z,-1.11
2023-01-27T17:48:54.059Z,-1.19
2023-01-27T17:51:26.370Z,-1.21
2023-01-27T17:53:58.171Z,-1.32
2023-01-27T17:56:32.258Z,-1.40
2023-01-27T17:59:08.891Z,-1.46
2023-01-27T18:01:40.762Z,-1.49
2023-01-27T18:04:11.263Z,-1.56
2023-01-27T18:06:43.702Z,-1.56
2023-01-27T18:09:21.278Z,-1.49
2023-01-27T18:11:58.724Z,-1.54
2023-01-27T18:14:32.794Z,-1.57
2023-01-27T18:17:05.261Z,-1.70
2023-01-27T18:19:35.380Z,-1.76
2023-01-27T18:22:15.007Z,-1.67
2023-01-27T18:24:54.392Z,-1.73
2023-01-27T18:27:27.771Z,-1.70
2023-01-27T18:30:02.162Z,-1.75
2023-01-27T18:32:40.316Z,-1.90
2023-01-27T18:35:26.106Z,-1.96
2023-01-27T18:38:00.339Z,-2.13
2023-01-27T18:40:33.756Z,-2.20
2023-01-27T18:43:05.586Z,-2.26
2023-01-27T18:45:34.688Z,-2.37
2023-01-27T18:48:03.919Z,-2.43
2023-01-27T18:50:40.834Z,-2.45
2023-01-27T18:53:16.871Z,-2.46
2023-01-27T18:55:47.496Z,-2.57
2023-01-27T18:58:17.982Z,-2.63
2023-01-27T19:00:50.091Z,-2.66
2023-01-27T19:03:23.448Z,-2.69
2023-01-27T19:05:53.065Z,-2.78
2023-01-27T19:08:24.891Z,-2.84
2023-01-27T19:10:55.555Z,-2.84
2023-01-27T19:13:25.239Z,-2.88
2023-01-27T19:15:56.475Z,-2.90
2023-01-27T19:18:30.150Z,-2.71
2023-01-27T19:20:59.369Z,-2.73
2023-01-27T19:23:29.224Z,-2.55
2023-01-27T19:26:04.143Z,-2.51
2023-01-27T19:28:36.308Z,-2.41
2023-01-27T19:31:13.445Z,-2.52
2023-01-27T19:33:45.105Z,-2.36
2023-01-27T19:36:23.687Z,-2.50
2023-01-27T19:38:56.649Z,-2.63
2023-01-27T19:41:27.184Z,-2.81
2023-01-27T19:43:56.336Z,-2.63
2023-01-27T19:46:25.515Z,-2.70
2023-01-27T19:48:54.681Z,-2.68
2023-01-27T19:51:24.217Z,-2.78
2023-01-27T19:53:53.289Z,-2.66
2023-01-27T19:56:24.615Z,-2.86
2023-01-27T19:58:55.312Z,-2.90
2023-01-27T20:01:26.729Z,-2.77
2023-01-27T20:03:56.448Z,-2.88
2023-01-27T20:06:29.200Z,-2.90
2023-01-27T20:09:17.642Z,-3.00
2023-01-27T20:11:46.971Z,-3.04
2023-01-27T20:14:23.816Z,-2.73
2023-01-27T20:16:53.822Z,-2.51
2023-01-27T20:19:23.684Z,-2.56
2023-01-27T20:21:54.442Z,-2.75
2023-01-27T20:24:24.180Z,-2.89
2023-01-27T20:26:53.574Z,-2.94
2023-01-27T20:29:24.199Z,-2.85
2023-01-27T20:31:54.656Z,-2.64
2023-01-27T20:34:26.497Z,-2.52
2023-01-27T20:36:56.706Z,-2.56
2023-01-27T20:39:27.040Z,-2.71
2023-01-27T20:41:56.256Z,-2.66
2023-01-27T20:44:29.249Z,-2.63
2023-01-27T20:47:02.646Z,-2.46
2023-01-27T20:49:32.048Z,-2.51
2023-01-27T20:52:01.961Z,-2.43
2023-01-27T20:54:32.074Z,-2.39
2023-01-27T20:57:01.418Z,-2.48
2023-01-27T20:59:34.613Z,-2.53
2023-01-27T21:02:03.820Z,-2.53
2023-01-27T21:04:33.205Z,-2.56
2023-01-27T21:07:02.729Z,-2.49
2023-01-27T21:09:33.334Z,-2.53
2023-01-27T21:12:03.734Z,-2.60
2023-01-27T21:14:36.129Z,-2.65
2023-01-27T21:17:05.474Z,-2.76
2023-01-27T21:19:35.471Z,-2.79
2023-01-27T21:22:04.996Z,-2.74
2023-01-27T21:24:35.503Z,-2.59
2023-01-27T21:27:05.092Z,-2.50
2023-01-27T21:29:35.886Z,-2.35
2023-01-27T21:32:05.231Z,-2.43
2023-01-27T21:34:34.976Z,-2.39
2023-01-27T21:37:04.117Z,-2.52
2023-01-27T21:39:33.383Z,-2.44
2023-01-27T21:42:19.969Z,-2.22
2023-01-27T21:45:07.896Z,-2.12
2023-01-27T21:47:36.985Z,-2.13
2023-01-27T21:50:06.889Z,-2.16
2023-01-27T21:52:41.840Z,-2.31
2023-01-27T21:55:14.111Z,-2.44
2023-01-27T21:57:45.799Z,-2.52
2023-01-27T22:00:20.081Z,-2.60
2023-01-27T22:02:55.735Z,-2.61
2023-01-27T22:05:26.317Z,-2.56
2023-01-27T22:07:55.730Z,-2.44
2023-01-27T22:10:28.056Z,-2.48
2023-01-27T22:13:00.255Z,-2.55
2023-01-27T22:15:33.174Z,-2.53
2023-01-27T22:18:05.873Z,-2.47
2023-01-27T22:20:35.259Z,-2.42
2023-01-27T22:23:04.425Z,-2.41
2023-01-27T22:25:33.595Z,-2.36
2023-01-27T22:28:02.717Z,-2.28
2023-01-27T22:30:33.708Z,-2.27
2023-01-27T22:33:02.946Z,-2.23
2023-01-27T22:35:32.068Z,-2.25
2023-01-27T22:38:02.544Z,-2.28
2023-01-27T22:40:31.751Z,-2.28
2023-01-27T22:43:00.916Z,-2.26
2023-01-27T22:45:30.127Z,-2.23
2023-01-27T22:48:00.743Z,-2.21
2023-01-27T22:50:30.621Z,-2.26
2023-01-27T22:52:59.806Z,-2.12
2023-01-27T22:55:28.885Z,-2.04
2023-01-27T22:57:57.995Z,-2.10
2023-01-27T23:00:27.292Z,-2.11
2023-01-27T23:02:56.392Z,-2.18
2023-01-27T23:05:26.919Z,-2.21
2023-01-27T23:07:56.037Z,-2.23
2023-01-27T23:10:25.212Z,-2.28
2023-01-27T23:12:54.310Z,-2.44
2023-01-27T23:15:23.500Z,-2.54
2023-01-27T23:17:52.637Z,-2.63
2023-01-27T23:20:21.861Z,-2.74
2023-01-27T23:22:52.418Z,-2.70
2023-01-27T23:25:21.619Z,-2.69
2023-01-27T23:27:50.675Z,-2.65
2023-01-27T23:30:19.881Z,-2.62
2023-01-27T23:32:49.052Z,-2.60
2023-01-27T23:35:18.276Z,-2.56
2023-01-27T23:37:47.356Z,-2.49
2023-01-27T23:40:18.364Z,-2.47
2023-01-27T23:42:47.531Z,-2.47
2023-01-27T23:45:16.846Z,-2.45
2023-01-27T23:47:45.913Z,-2.38
2023-01-27T23:50:15.095Z,-2.28
2023-01-27T23:52:44.186Z,-2.22
2023-01-27T23:55:14.377Z,-2.22
2023-01-27T23:57:45.060Z,-2.26
